Time;durP1;ratioP1;P1;durP2;ratioP2;P2;SDS_P1;SDS_P2;PMS_P1;PMS_P2;Temp;Humidity;BMP_temperature;BMP_pressure;BME280_temperature;BME280_humidity;BME280_pressure;Samples;Min_cycle;Max_cycle;Signal;HPM_P1;HPM_P2
2021/08/08 00:02:22;;;;;;;11.90;11.30;;;17.20;99.90;;;;;;4933893;29;20464;-73
2021/08/08 00:04:49;;;;;;;11.10;10.70;;;17.20;99.90;;;;;;4933883;29;20949;-72
2021/08/08 00:07:16;;;;;;;11.67;11.27;;;17.30;99.90;;;;;;4934089;29;20826;-73
2021/08/08 00:09:43;;;;;;;11.87;11.40;;;17.20;99.90;;;;;;4933983;29;20460;-72
2021/08/08 00:12:10;;;;;;;11.40;11.00;;;17.20;99.90;;;;;;4933952;29;20568;-73
2021/08/08 00:14:37;;;;;;;11.57;11.13;;;17.20;99.90;;;;;;4933633;29;20453;-73
2021/08/08 00:17:04;;;;;;;11.83;11.30;;;17.10;99.90;;;;;;4933654;29;20465;-71
2021/08/08 00:19:33;;;;;;;11.80;11.20;;;17.10;99.90;;;;;;4933633;29;20465;-72
2021/08/08 00:22:00;;;;;;;12.97;12.37;;;17.10;99.90;;;;;;4933750;29;20514;-72
2021/08/08 00:24:26;;;;;;;11.97;11.57;;;17.00;99.90;;;;;;4933452;29;20466;-71
2021/08/08 00:26:53;;;;;;;11.30;10.90;;;17.00;99.90;;;;;;4933414;29;20481;-71
2021/08/08 00:29:20;;;;;;;11.73;11.23;;;16.90;99.90;;;;;;4933372;29;20881;-71
2021/08/08 00:31:46;;;;;;;12.17;11.57;;;16.90;99.90;;;;;;4932970;29;20560;-73
2021/08/08 00:34:13;;;;;;;13.10;12.40;;;16.80;99.90;;;;;;4933303;29;20464;-73
2021/08/08 00:36:41;;;;;;;11.70;11.20;;;16.80;99.90;;;;;;4933368;29;20964;-71
2021/08/08 00:39:08;;;;;;;12.00;11.40;;;16.90;99.90;;;;;;4933591;29;20453;-71
2021/08/08 00:41:35;;;;;;;12.30;11.77;;;16.90;99.90;;;;;;4932920;29;20461;-71
2021/08/08 00:44:01;;;;;;;11.60;11.07;;;16.90;99.90;;;;;;4932996;29;21186;-71
2021/08/08 00:46:28;;;;;;;12.30;11.33;;;16.90;99.90;;;;;;4933042;29;20461;-71
2021/08/08 00:48:55;;;;;;;11.20;10.80;;;16.90;99.90;;;;;;4932294;29;20931;-70
2021/08/08 00:51:21;;;;;;;11.77;11.20;;;17.00;99.90;;;;;;4932738;29;20504;-70
2021/08/08 00:53:49;;;;;;;11.67;11.27;;;17.00;99.90;;;;;;4932982;29;20457;-70
2021/08/08 00:56:16;;;;;;;12.17;11.40;;;17.10;99.90;;;;;;4933170;29;20453;-71
2021/08/08 00:58:43;;;;;;;12.20;11.80;;;17.20;99.90;;;;;;4933167;29;20466;-71
2021/08/08 01:01:15;;;;;;;11.60;10.80;;;17.20;99.90;;;;;;4933213;29;20456;-71
2021/08/08 01:03:44;;;;;;;11.73;11.23;;;17.20;99.90;;;;;;4932762;29;20930;-72
2021/08/08 01:06:16;;;;;;;11.23;10.67;;;17.20;99.90;;;;;;4933227;29;20458;-71
2021/08/08 01:08:48;;;;;;;11.43;10.93;;;17.20;99.90;;;;;;4933041;29;20464;-71
2021/08/08 01:11:18;;;;;;;11.50;11.00;;;17.30;99.90;;;;;;4932824;29;20458;-71
2021/08/08 01:13:46;;;;;;;11.40;11.00;;;17.40;99.90;;;;;;4932847;29;20460;-71
2021/08/08 01:16:14;;;;;;;11.17;10.77;;;17.40;99.90;;;;;;4933096;29;20801;-71
2021/08/08 01:18:44;;;;;;;10.80;10.40;;;17.30;99.90;;;;;;4933038;29;20976;-71
2021/08/08 01:21:11;;;;;;;11.13;10.63;;;17.20;99.90;;;;;;4933192;29;20833;-72
2021/08/08 01:23:39;;;;;;;11.50;11.00;;;17.10;99.90;;;;;;4932748;29;20826;-71
2021/08/08 01:26:08;;;;;;;11.37;11.07;;;17.10;99.90;;;;;;4932515;29;20889;-72
2021/08/08 01:28:35;;;;;;;11.40;10.90;;;17.10;99.90;;;;;;4932857;29;20460;-71
2021/08/08 01:31:02;;;;;;;11.63;11.10;;;17.10;99.90;;;;;;4932570;29;20477;-71
2021/08/08 01:33:29;;;;;;;10.47;10.07;;;17.00;99.90;;;;;;4932579;29;20504;-71
2021/08/08 01:35:56;;;;;;;11.30;10.90;;;17.00;99.90;;;;;;4932934;29;20809;-71
2021/08/08 01:38:23;;;;;;;11.37;10.87;;;16.80;99.90;;;;;;4933022;29;20453;-71
2021/08/08 01:40:55;;;;;;;11.07;10.67;;;16.90;99.90;;;;;;4932716;29;20465;-71
2021/08/08 01:43:29;;;;;;;11.30;10.70;;;16.90;99.90;;;;;;4932604;29;20449;-70
2021/08/08 01:46:03;;;;;;;11.37;10.57;;;16.90;99.90;;;;;;4932914;29;20464;-71
2021/08/08 01:48:31;;;;;;;11.10;10.77;;;17.10;99.90;;;;;;4932624;29;20678;-71
2021/08/08 01:50:58;;;;;;;10.80;10.50;;;17.20;99.90;;;;;;4932168;29;20494;-71
2021/08/08 01:53:26;;;;;;;11.17;10.77;;;17.30;99.90;;;;;;4932688;29;20540;-72
2021/08/08 01:55:52;;;;;;;10.73;10.33;;;17.40;99.90;;;;;;4932440;29;20465;-71
2021/08/08 01:58:19;;;;;;;11.40;11.00;;;17.40;99.90;;;;;;4932538;29;20457;-70
2021/08/08 02:00:50;;;;;;;11.07;10.60;;;17.40;99.90;;;;;;4936069;29;20464;-71
2021/08/08 02:03:17;;;;;;;10.80;10.40;;;17.30;99.90;;;;;;4936201;29;20942;-70
2021/08/08 02:05:44;;;;;;;11.20;10.70;;;17.30;99.90;;;;;;4936641;29;20457;-70
2021/08/08 02:08:11;;;;;;;11.97;11.33;;;17.20;99.90;;;;;;4936184;29;20457;-71
2021/08/08 02:10:37;;;;;;;11.53;11.13;;;17.20;99.90;;;;;;4935854;29;20876;-71
2021/08/08 02:13:05;;;;;;;11.90;11.40;;;17.10;99.90;;;;;;4936249;29;20570;-71
2021/08/08 02:15:31;;;;;;;11.63;11.13;;;17.00;99.90;;;;;;4935783;29;20805;-71
2021/08/08 02:17:59;;;;;;;12.03;11.60;;;16.90;99.90;;;;;;4935932;29;20449;-70
2021/08/08 02:20:26;;;;;;;11.27;10.97;;;16.80;99.90;;;;;;4935974;29;20522;-71
2021/08/08 02:22:53;;;;;;;11.97;11.50;;;16.70;99.90;;;;;;4935897;29;20457;-71
2021/08/08 02:25:19;;;;;;;12.03;11.20;;;16.60;99.90;;;;;;4935511;29;20879;-71
2021/08/08 02:27:46;;;;;;;10.87;10.50;;;16.60;99.90;;;;;;4935591;29;20453;-70
2021/08/08 02:30:13;;;;;;;11.93;11.53;;;16.50;99.90;;;;;;4935672;29;20454;-71
2021/08/08 02:32:40;;;;;;;11.90;11.40;;;16.50;99.90;;;;;;4935961;29;20492;-71
2021/08/08 02:35:09;;;;;;;12.10;11.60;;;16.50;99.90;;;;;;4935464;29;20505;-71
2021/08/08 02:37:36;;;;;;;12.23;11.73;;;16.40;99.90;;;;;;4935508;29;20449;-72
2021/08/08 02:40:03;;;;;;;12.30;11.90;;;16.40;99.90;;;;;;4935391;29;21005;-71
2021/08/08 02:42:31;;;;;;;11.87;11.27;;;16.50;99.90;;;;;;4935446;29;20458;-71
2021/08/08 02:44:58;;;;;;;11.60;11.00;;;16.50;99.90;;;;;;4935163;29;21017;-71
2021/08/08 02:47:26;;;;;;;11.50;11.10;;;16.50;99.90;;;;;;4935604;29;20460;-71
2021/08/08 02:49:53;;;;;;;11.90;11.50;;;16.60;99.90;;;;;;4935091;29;20529;-72
2021/08/08 02:52:21;;;;;;;11.80;11.20;;;16.60;99.90;;;;;;4934974;29;20489;-72
2021/08/08 02:54:48;;;;;;;12.13;11.53;;;16.60;99.90;;;;;;4935311;29;20897;-70
2021/08/08 02:57:15;;;;;;;11.57;11.07;;;16.50;99.90;;;;;;4935312;29;20449;-71
2021/08/08 02:59:41;;;;;;;11.23;10.73;;;16.50;99.90;;;;;;4935468;29;20521;-71
2021/08/08 03:02:08;;;;;;;11.97;11.27;;;16.40;99.90;;;;;;4935207;29;20441;-71
2021/08/08 03:04:35;;;;;;;11.60;11.20;;;16.30;99.90;;;;;;4934884;29;20464;-71
2021/08/08 03:07:02;;;;;;;12.30;11.80;;;16.10;99.90;;;;;;4935318;29;20457;-71
2021/08/08 03:09:32;;;;;;;12.27;11.77;;;16.00;99.90;;;;;;4934952;29;20465;-71
2021/08/08 03:11:58;;;;;;;13.10;12.43;;;15.90;99.90;;;;;;4933801;29;20469;-71
2021/08/08 03:14:25;;;;;;;13.53;12.93;;;15.90;99.90;;;;;;4935013;29;20825;-71
2021/08/08 03:16:52;;;;;;;13.07;12.47;;;15.80;99.90;;;;;;4934690;29;20461;-71
2021/08/08 03:19:19;;;;;;;12.20;11.80;;;15.70;99.90;;;;;;4935189;29;20469;-71
2021/08/08 03:21:45;;;;;;;12.93;12.43;;;15.70;99.90;;;;;;4934721;29;20461;-71
2021/08/08 03:24:12;;;;;;;13.80;12.90;;;15.70;99.90;;;;;;4934763;29;20453;-71
2021/08/08 03:26:40;;;;;;;13.27;12.67;;;15.70;99.90;;;;;;4934658;29;20458;-71
2021/08/08 03:29:08;;;;;;;13.20;12.50;;;15.70;99.90;;;;;;4934857;29;20462;-71
2021/08/08 03:31:35;;;;;;;12.77;12.33;;;15.70;99.90;;;;;;4934791;29;20528;-71
2021/08/08 03:34:02;;;;;;;12.73;12.07;;;15.80;99.90;;;;;;4934606;29;20496;-71
2021/08/08 03:36:29;;;;;;;11.87;11.27;;;15.70;99.90;;;;;;4934545;29;20458;-71
2021/08/08 03:38:55;;;;;;;11.97;11.47;;;15.70;99.90;;;;;;4934435;29;20497;-71
2021/08/08 03:41:22;;;;;;;12.10;11.70;;;15.70;99.90;;;;;;4934614;29;20457;-71
2021/08/08 03:43:50;;;;;;;11.80;11.40;;;15.70;99.90;;;;;;4934836;29;20449;-70
2021/08/08 03:46:17;;;;;;;12.80;12.20;;;15.70;99.90;;;;;;4934241;29;20951;-71
2021/08/08 03:48:44;;;;;;;12.93;12.43;;;15.70;99.90;;;;;;4934313;29;20477;-73
2021/08/08 03:51:11;;;;;;;12.50;11.90;;;15.70;99.90;;;;;;4933869;29;20532;-71
2021/08/08 03:53:38;;;;;;;12.37;11.87;;;15.60;99.90;;;;;;4934215;29;20493;-71
2021/08/08 03:56:05;;;;;;;13.07;12.30;;;15.60;99.90;;;;;;4934158;29;20465;-70
2021/08/08 03:58:32;;;;;;;13.00;12.33;;;15.60;99.90;;;;;;4934296;29;20454;-71
2021/08/08 04:01:01;;;;;;;12.87;11.70;;;15.60;99.90;;;;;;4934190;29;20493;-71
2021/08/08 04:03:28;;;;;;;12.80;12.10;;;15.60;99.90;;;;;;4934223;29;20450;-73
2021/08/08 04:05:54;;;;;;;13.10;12.40;;;15.50;99.90;;;;;;4934357;29;20464;-70
2021/08/08 04:08:21;;;;;;;12.80;12.20;;;15.40;99.90;;;;;;4934099;29;20465;-70
2021/08/08 04:10:48;;;;;;;13.00;12.50;;;15.40;99.90;;;;;;4933966;29;20598;-71
2021/08/08 04:13:15;;;;;;;12.03;11.57;;;15.40;99.90;;;;;;4933983;29;20493;-71
2021/08/08 04:15:41;;;;;;;13.00;12.50;;;15.40;99.90;;;;;;4933989;29;20465;-71
2021/08/08 04:18:12;;;;;;;13.40;12.90;;;15.40;99.90;;;;;;4933822;29;20472;-72
2021/08/08 04:20:39;;;;;;;13.30;12.80;;;15.40;99.90;;;;;;4934004;29;20497;-71
2021/08/08 04:23:06;;;;;;;13.00;12.33;;;15.40;99.90;;;;;;4933417;29;20449;-71
2021/08/08 04:25:33;;;;;;;13.73;13.13;;;15.40;99.90;;;;;;4933436;29;20457;-71
2021/08/08 04:28:00;;;;;;;13.23;12.63;;;15.40;99.90;;;;;;4933711;29;20465;-71
2021/08/08 04:30:27;;;;;;;13.13;12.43;;;15.40;99.90;;;;;;4933554;29;20985;-72
2021/08/08 04:32:54;;;;;;;12.70;12.20;;;15.40;99.90;;;;;;4933835;29;20493;-72
2021/08/08 04:35:22;;;;;;;13.30;12.53;;;15.50;99.90;;;;;;4933282;29;20481;-71
2021/08/08 04:37:48;;;;;;;12.67;12.00;;;15.50;99.90;;;;;;4933788;29;20457;-71
2021/08/08 04:40:15;;;;;;;13.10;11.97;;;15.50;99.90;;;;;;4933592;29;20454;-71
2021/08/08 04:42:42;;;;;;;12.30;11.80;;;15.50;99.90;;;;;;4933593;29;20453;-71
2021/08/08 04:45:09;;;;;;;12.07;11.60;;;15.50;99.90;;;;;;4933086;29;20976;-71
2021/08/08 04:47:36;;;;;;;12.50;12.10;;;15.50;99.90;;;;;;4933479;29;20457;-71
2021/08/08 04:50:03;;;;;;;12.27;11.63;;;15.50;99.90;;;;;;4933036;29;20566;-72
2021/08/08 04:52:37;;;;;;;13.43;12.50;;;15.50;99.90;;;;;;4933280;29;20458;-72
2021/08/08 04:55:04;;;;;;;13.10;12.40;;;15.50;99.90;;;;;;4933199;29;20665;-72
2021/08/08 04:57:31;;;;;;;12.37;11.87;;;15.60;99.90;;;;;;4932985;29;20834;-72
2021/08/08 04:59:57;;;;;;;13.20;12.50;;;16.00;99.90;;;;;;4933239;29;20457;-72
2021/08/08 05:02:24;;;;;;;12.77;12.17;;;16.40;99.90;;;;;;4933250;29;20453;-72
2021/08/08 05:04:51;;;;;;;11.43;10.90;;;17.00;99.90;;;;;;4933350;29;20460;-71
2021/08/08 05:07:17;;;;;;;11.77;11.07;;;17.40;99.90;;;;;;4933084;29;20457;-71
2021/08/08 05:09:45;;;;;;;11.67;11.07;;;17.60;99.90;;;;;;4933391;29;20461;-71
2021/08/08 05:12:12;;;;;;;11.17;10.80;;;17.90;99.90;;;;;;4933027;29;20462;-71
2021/08/08 05:14:39;;;;;;;10.80;10.40;;;17.90;99.90;;;;;;4933052;29;20493;-72
2021/08/08 05:17:07;;;;;;;11.60;11.10;;;18.00;99.90;;;;;;4932989;29;20801;-71
2021/08/08 05:19:34;;;;;;;11.10;10.70;;;18.30;99.90;;;;;;4932978;29;20485;-71
2021/08/08 05:22:00;;;;;;;11.33;10.90;;;18.50;99.90;;;;;;4932765;29;20461;-72
2021/08/08 05:24:27;;;;;;;11.50;11.10;;;18.60;99.90;;;;;;4932911;29;20453;-71
2021/08/08 05:26:56;;;;;;;11.20;10.80;;;18.70;99.90;;;;;;4932886;29;20960;-72
2021/08/08 05:29:24;;;;;;;11.53;11.03;;;18.90;99.90;;;;;;4933196;29;20457;-71
2021/08/08 05:31:52;;;;;;;11.07;10.67;;;19.00;99.90;;;;;;4932895;29;20504;-71
2021/08/08 05:34:18;;;;;;;10.53;10.13;;;19.20;99.90;;;;;;4934272;29;20493;-72
2021/08/08 05:36:45;;;;;;;11.57;10.80;;;19.50;99.90;;;;;;4936461;29;20476;-72
2021/08/08 05:39:12;;;;;;;10.73;10.13;;;19.80;99.90;;;;;;4936754;29;20461;-71
2021/08/08 05:41:39;;;;;;;11.20;10.80;;;19.90;99.90;;;;;;4936806;29;20457;-72
2021/08/08 05:44:07;;;;;;;11.80;11.30;;;20.10;99.90;;;;;;4936670;29;20516;-72
2021/08/08 05:46:34;;;;;;;11.23;10.70;;;20.30;99.90;;;;;;4936757;29;20505;-72
2021/08/08 05:49:00;;;;;;;10.90;10.50;;;20.30;99.90;;;;;;4936471;29;20843;-72
2021/08/08 05:51:27;;;;;;;11.13;10.60;;;20.30;99.90;;;;;;4936550;29;20801;-72
2021/08/08 05:53:54;;;;;;;10.77;10.47;;;20.20;99.90;;;;;;4936724;29;20480;-72
2021/08/08 05:56:20;;;;;;;11.27;10.77;;;20.00;99.90;;;;;;4936344;29;20476;-72
2021/08/08 05:58:47;;;;;;;11.03;10.63;;;20.00;99.90;;;;;;4936355;29;20532;-72
2021/08/08 06:01:15;;;;;;;10.60;10.30;;;20.10;99.90;;;;;;4936358;29;20460;-72
2021/08/08 06:03:42;;;;;;;11.37;10.80;;;20.30;99.90;;;;;;4936202;29;20445;-73
2021/08/08 06:06:10;;;;;;;11.00;10.50;;;20.40;99.90;;;;;;4936548;29;20461;-73
2021/08/08 06:08:37;;;;;;;11.47;10.90;;;20.90;99.90;;;;;;4936321;29;20445;-72
2021/08/08 06:11:04;;;;;;;11.53;10.70;;;21.10;99.90;;;;;;4935907;29;20881;-73
2021/08/08 06:13:31;;;;;;;10.80;10.40;;;21.30;99.90;;;;;;4935932;29;20500;-72
2021/08/08 06:15:58;;;;;;;12.93;12.43;;;21.50;99.90;;;;;;4936032;29;20457;-73
2021/08/08 06:18:26;;;;;;;11.23;10.70;;;21.80;99.90;;;;;;4936199;29;20461;-72
2021/08/08 06:20:53;;;;;;;11.20;10.90;;;22.20;99.90;;;;;;4936025;29;20464;-72
2021/08/08 06:23:19;;;;;;;11.43;11.03;;;22.60;99.90;;;;;;4935923;29;20454;-73
2021/08/08 06:25:46;;;;;;;11.17;10.83;;;22.90;99.90;;;;;;4935835;29;20878;-72
2021/08/08 06:28:13;;;;;;;11.37;10.87;;;23.20;99.90;;;;;;4935759;29;20465;-73
2021/08/08 06:30:39;;;;;;;11.60;11.10;;;23.50;99.90;;;;;;4936101;29;20468;-72
2021/08/08 06:33:06;;;;;;;11.20;10.80;;;23.90;99.90;;;;;;4935391;29;20501;-72
2021/08/08 06:35:34;;;;;;;10.70;10.40;;;23.90;99.90;;;;;;4935883;29;20476;-72
2021/08/08 06:38:01;;;;;;;10.60;10.10;;;23.80;99.90;;;;;;4935671;29;20462;-73
2021/08/08 06:40:28;;;;;;;11.07;10.57;;;23.80;99.90;;;;;;4935972;29;20453;-72
2021/08/08 06:42:55;;;;;;;10.47;10.17;;;23.80;99.90;;;;;;4935871;29;20449;-72
2021/08/08 06:45:21;;;;;;;10.80;10.40;;;23.80;99.40;;;;;;4935427;29;20453;-72
2021/08/08 06:47:48;;;;;;;10.13;9.67;;;23.60;99.90;;;;;;4935343;29;20460;-74
2021/08/08 06:50:15;;;;;;;10.53;10.23;;;23.70;99.70;;;;;;4935142;29;20485;-72
2021/08/08 06:52:43;;;;;;;10.60;10.10;;;23.60;99.70;;;;;;4935496;29;20457;-72
2021/08/08 06:55:10;;;;;;;10.60;10.20;;;23.80;99.40;;;;;;4935583;29;20489;-72
2021/08/08 06:57:37;;;;;;;10.60;10.20;;;24.10;98.90;;;;;;4935276;29;20454;-72
2021/08/08 07:00:05;;;;;;;10.30;9.90;;;24.40;98.10;;;;;;4935232;29;20453;-72
2021/08/08 07:02:32;;;;;;;10.90;10.30;;;24.50;98.20;;;;;;4935157;29;20824;-72
2021/08/08 07:04:58;;;;;;;10.70;10.30;;;25.30;96.90;;;;;;4935161;29;20815;-73
2021/08/08 07:07:25;;;;;;;10.53;10.20;;;25.50;96.70;;;;;;4934963;29;20981;-73
2021/08/08 07:09:53;;;;;;;10.90;10.50;;;25.60;95.70;;;;;;4935018;29;20461;-73
2021/08/08 07:12:20;;;;;;;10.80;10.40;;;25.70;95.80;;;;;;4935003;29;20465;-72
2021/08/08 07:14:47;;;;;;;11.93;11.43;;;25.50;95.90;;;;;;4934710;29;21055;-73
2021/08/08 07:17:14;;;;;;;10.63;10.23;;;25.70;96.00;;;;;;4934517;29;20829;-73
2021/08/08 07:19:41;;;;;;;11.00;10.40;;;26.30;94.90;;;;;;4935303;29;20928;-73
2021/08/08 07:22:08;;;;;;;11.07;10.63;;;26.50;94.30;;;;;;4934854;29;20461;-73
2021/08/08 07:24:35;;;;;;;11.07;10.57;;;27.20;93.20;;;;;;4934814;29;20449;-73
2021/08/08 07:27:03;;;;;;;10.63;10.23;;;27.20;93.00;;;;;;4934689;29;20453;-73
2021/08/08 07:29:29;;;;;;;10.43;10.03;;;27.20;92.70;;;;;;4934374;29;20458;-72
2021/08/08 07:31:56;;;;;;;11.27;10.93;;;27.50;92.10;;;;;;4934577;29;20489;-73
2021/08/08 07:34:23;;;;;;;11.27;10.87;;;27.40;91.30;;;;;;4934881;29;20485;-73
2021/08/08 07:36:50;;;;;;;10.50;10.10;;;27.30;91.40;;;;;;4934264;29;20929;-72
2021/08/08 07:39:17;;;;;;;10.80;10.40;;;27.20;91.90;;;;;;4934527;29;20464;-73
2021/08/08 07:41:44;;;;;;;10.90;10.50;;;27.40;91.30;;;;;;4934236;29;20458;-73
2021/08/08 07:44:12;;;;;;;10.67;10.27;;;27.70;90.80;;;;;;4934521;29;20456;-72
2021/08/08 07:46:38;;;;;;;10.87;10.47;;;26.70;91.70;;;;;;4934987;29;20569;-73
2021/08/08 07:49:06;;;;;;;10.93;10.53;;;26.80;92.20;;;;;;4933921;29;20469;-72
2021/08/08 07:51:32;;;;;;;10.90;10.50;;;27.10;91.10;;;;;;4934121;29;20493;-72
2021/08/08 07:53:59;;;;;;;10.70;10.30;;;27.50;91.30;;;;;;4934076;29;20501;-72
2021/08/08 07:56:26;;;;;;;10.77;10.27;;;27.60;90.80;;;;;;4933959;29;20453;-73
2021/08/08 07:58:52;;;;;;;10.60;10.00;;;27.10;90.00;;;;;;4934180;29;20461;-73
2021/08/08 08:01:21;;;;;;;10.17;9.80;;;27.80;90.30;;;;;;4933866;29;20464;-73
2021/08/08 08:03:48;;;;;;;10.57;10.17;;;28.40;89.00;;;;;;4933988;29;20461;-72
2021/08/08 08:06:14;;;;;;;10.70;10.40;;;28.90;86.70;;;;;;4933971;29;20460;-72
2021/08/08 08:08:42;;;;;;;11.73;11.23;;;28.80;84.20;;;;;;4934248;29;20477;-72
2021/08/08 08:11:09;;;;;;;10.60;10.20;;;27.70;87.60;;;;;;4934160;29;20553;-73
2021/08/08 08:13:36;;;;;;;11.10;10.60;;;27.70;86.30;;;;;;4933744;29;20457;-72
2021/08/08 08:16:02;;;;;;;10.90;10.60;;;27.70;86.00;;;;;;4933963;29;20956;-72
2021/08/08 08:18:30;;;;;;;11.63;11.23;;;26.60;89.10;;;;;;4933814;29;20486;-72
2021/08/08 08:20:58;;;;;;;11.10;10.70;;;27.00;90.20;;;;;;4933850;29;20453;-73
2021/08/08 08:23:25;;;;;;;11.30;10.90;;;27.30;90.00;;;;;;4933882;29;20950;-72
2021/08/08 08:25:51;;;;;;;11.33;10.90;;;27.10;89.00;;;;;;4933711;29;20462;-72
2021/08/08 08:28:18;;;;;;;11.60;11.20;;;28.10;87.20;;;;;;4933453;29;20461;-72
2021/08/08 08:30:45;;;;;;;11.70;11.13;;;27.60;87.60;;;;;;4933405;29;20835;-72
2021/08/08 08:33:11;;;;;;;11.43;11.03;;;27.40;87.30;;;;;;4933967;29;20507;-72
2021/08/08 08:35:40;;;;;;;12.13;11.60;;;26.20;90.00;;;;;;4933814;29;20500;-73
2021/08/08 08:38:07;;;;;;;10.63;10.00;;;25.60;90.70;;;;;;4933557;29;20972;-74
2021/08/08 08:40:37;;;;;;;11.53;11.03;;;26.10;90.50;;;;;;4933666;29;20461;-71
2021/08/08 08:43:07;;;;;;;12.20;11.73;;;27.10;88.50;;;;;;4933216;29;20457;-71
2021/08/08 08:45:35;;;;;;;11.50;11.10;;;27.10;87.30;;;;;;4933282;29;21186;-72
2021/08/08 08:48:02;;;;;;;10.93;10.53;;;27.20;87.40;;;;;;4933290;29;20485;-71
2021/08/08 08:50:29;;;;;;;10.90;10.37;;;27.70;84.50;;;;;;4933021;29;20485;-72
2021/08/08 08:52:57;;;;;;;10.60;10.10;;;27.40;84.10;;;;;;4933201;29;20457;-72
2021/08/08 08:55:24;;;;;;;10.70;10.30;;;26.80;86.60;;;;;;4933194;29;20516;-72
2021/08/08 08:57:52;;;;;;;11.13;10.83;;;27.70;83.50;;;;;;4933068;29;20461;-72
2021/08/08 09:00:20;;;;;;;11.63;11.23;;;28.90;81.00;;;;;;4933068;29;20476;-72
2021/08/08 09:02:47;;;;;;;11.07;10.77;;;29.40;78.00;;;;;;4933252;29;20461;-72
2021/08/08 09:05:14;;;;;;;11.40;11.00;;;28.60;77.80;;;;;;4933056;29;20453;-72
2021/08/08 09:07:41;;;;;;;11.27;10.70;;;27.90;80.30;;;;;;4932742;29;20460;-72
2021/08/08 09:10:14;;;;;;;11.53;11.10;;;26.80;83.10;;;;;;4932451;29;20458;-73
2021/08/08 09:12:41;;;;;;;10.80;10.40;;;25.60;87.60;;;;;;4933118;29;20453;-72
2021/08/08 09:15:11;;;;;;;12.30;11.80;;;25.00;90.10;;;;;;4932906;29;20493;-72
2021/08/08 09:17:39;;;;;;;10.40;10.10;;;24.60;91.30;;;;;;4933113;29;20463;-71
2021/08/08 09:20:09;;;;;;;11.10;10.70;;;24.50;91.50;;;;;;4932771;29;20464;-72
2021/08/08 09:22:36;;;;;;;10.00;9.60;;;24.70;91.60;;;;;;4933086;29;20834;-73
2021/08/08 09:25:03;;;;;;;11.60;10.80;;;25.30;90.80;;;;;;4932899;29;20457;-73
2021/08/08 09:27:35;;;;;;;11.87;11.43;;;25.70;90.30;;;;;;4933096;29;20512;-73
2021/08/08 09:30:03;;;;;;;10.90;10.50;;;26.90;87.10;;;;;;4932524;29;20449;-71
2021/08/08 09:32:31;;;;;;;10.83;10.43;;;27.60;85.00;;;;;;4932774;29;20458;-71
2021/08/08 09:35:06;;;;;;;11.00;10.50;;;27.90;82.00;;;;;;4932643;29;20544;-71
2021/08/08 09:37:33;;;;;;;11.00;10.70;;;27.80;81.00;;;;;;4932904;29;20457;-71
2021/08/08 09:40:00;;;;;;;11.07;10.57;;;28.30;79.90;;;;;;4932730;29;20457;-72
2021/08/08 09:42:29;;;;;;;11.27;10.77;;;28.50;79.00;;;;;;4932891;29;20464;-72
2021/08/08 09:44:59;;;;;;;11.60;10.90;;;28.40;79.90;;;;;;4932722;29;20453;-72
2021/08/08 09:47:37;;;;;;;11.00;10.60;;;28.50;77.80;;;;;;4932843;29;20869;-71
2021/08/08 09:50:05;;;;;;;10.87;10.57;;;28.30;80.20;;;;;;4932545;29;20487;-73
2021/08/08 09:52:32;;;;;;;10.97;10.50;;;28.20;79.50;;;;;;4932704;29;20461;-73
2021/08/08 09:54:59;;;;;;;11.93;11.50;;;28.60;79.10;;;;;;4932509;29;20500;-73
2021/08/08 09:57:26;;;;;;;12.07;11.57;;;29.50;75.40;;;;;;4932970;29;20480;-72
2021/08/08 09:59:53;;;;;;;11.87;11.47;;;29.90;74.50;;;;;;4932742;29;20454;-72
2021/08/08 10:02:23;;;;;;;11.90;11.50;;;30.70;70.70;;;;;;4932285;29;20453;-73
2021/08/08 10:04:50;;;;;;;12.77;12.17;;;30.40;68.50;;;;;;4932544;29;20449;-72
2021/08/08 10:07:17;;;;;;;11.40;10.90;;;30.20;70.00;;;;;;4932807;29;20453;-72
2021/08/08 10:09:45;;;;;;;11.53;11.13;;;30.60;70.00;;;;;;4932536;29;20457;-72
2021/08/08 10:12:25;;;;;;;11.07;10.67;;;30.60;67.50;;;;;;4932855;29;20485;-72
2021/08/08 10:14:55;;;;;;;11.03;10.67;;;30.70;66.70;;;;;;4932234;29;20500;-72
2021/08/08 10:17:26;;;;;;;12.10;11.60;;;30.50;67.70;;;;;;4932458;29;20465;-72
2021/08/08 10:19:55;;;;;;;10.63;10.23;;;30.00;69.00;;;;;;4933258;29;20449;-72
2021/08/08 10:22:25;;;;;;;11.40;11.00;;;29.50;67.50;;;;;;4935850;29;20464;-72
2021/08/08 10:24:56;;;;;;;11.30;10.97;;;29.10;70.20;;;;;;4935637;29;20449;-72
2021/08/08 10:27:24;;;;;;;11.80;11.30;;;29.80;70.50;;;;;;4935944;29;20551;-72
2021/08/08 10:29:52;;;;;;;11.80;11.40;;;29.70;69.50;;;;;;4935830;29;20445;-72
2021/08/08 10:32:19;;;;;;;12.73;12.03;;;29.20;69.30;;;;;;4935737;29;20981;-72
2021/08/08 10:34:47;;;;;;;11.07;10.47;;;28.40;72.50;;;;;;4935468;29;21008;-70
2021/08/08 10:37:15;;;;;;;11.60;11.20;;;28.50;72.30;;;;;;4935321;29;20480;-71
2021/08/08 10:39:43;;;;;;;11.97;11.20;;;28.30;73.30;;;;;;4935958;29;20453;-71
2021/08/08 10:42:10;;;;;;;11.83;11.43;;;28.50;73.40;;;;;;4935583;29;20458;-71
2021/08/08 10:44:48;;;;;;;10.87;10.47;;;28.60;72.40;;;;;;4935541;29;20461;-71
2021/08/08 10:47:25;;;;;;;11.80;11.40;;;28.50;73.50;;;;;;4935719;29;20464;-72
2021/08/08 10:49:53;;;;;;;11.40;11.00;;;27.70;75.10;;;;;;4935036;29;20473;-71
2021/08/08 10:52:20;;;;;;;12.00;11.40;;;27.30;74.90;;;;;;4935192;29;20512;-71
2021/08/08 10:54:49;;;;;;;10.60;10.20;;;27.40;74.70;;;;;;4935358;29;20885;-71
2021/08/08 10:57:17;;;;;;;11.40;10.90;;;27.80;74.70;;;;;;4935164;29;20453;-71
2021/08/08 10:59:45;;;;;;;11.70;11.30;;;27.50;75.50;;;;;;4935169;29;20468;-71
2021/08/08 11:02:13;;;;;;;12.47;12.03;;;27.70;74.50;;;;;;4935460;29;20882;-71
2021/08/08 11:04:39;;;;;;;11.67;11.27;;;28.70;73.30;;;;;;4935330;29;20941;-71
2021/08/08 11:07:08;;;;;;;12.23;11.80;;;28.80;71.10;;;;;;4935197;29;20453;-70
2021/08/08 11:09:37;;;;;;;11.40;11.00;;;29.40;70.80;;;;;;4934736;29;20457;-71
2021/08/08 11:12:05;;;;;;;12.23;11.33;;;31.00;66.40;;;;;;4935017;29;20457;-72
2021/08/08 11:14:32;;;;;;;11.97;11.57;;;32.20;63.40;;;;;;4934779;29;20476;-71
2021/08/08 11:17:01;;;;;;;12.60;12.17;;;32.90;60.60;;;;;;4935067;29;20457;-71
2021/08/08 11:19:35;;;;;;;11.77;11.37;;;33.50;58.60;;;;;;4935034;29;20796;-70
2021/08/08 11:22:11;;;;;;;12.57;12.17;;;34.30;55.30;;;;;;4934747;29;21003;-71
2021/08/08 11:24:39;;;;;;;12.90;12.50;;;34.20;55.20;;;;;;4934808;29;20551;-71
2021/08/08 11:27:06;;;;;;;12.40;12.00;;;33.00;55.90;;;;;;4934664;29;20457;-71
2021/08/08 11:29:34;;;;;;;12.50;12.10;;;31.90;58.20;;;;;;4934435;29;21012;-70
2021/08/08 11:32:02;;;;;;;12.50;12.00;;;30.80;59.70;;;;;;4933791;29;20457;-71
2021/08/08 11:34:30;;;;;;;11.57;11.17;;;30.30;61.20;;;;;;4934627;29;20453;-71
2021/08/08 11:36:57;;;;;;;12.40;12.00;;;29.70;63.10;;;;;;4934495;29;20460;-71
2021/08/08 11:39:32;;;;;;;12.50;11.70;;;29.80;63.30;;;;;;4934858;29;20559;-71
2021/08/08 11:42:04;;;;;;;12.40;11.67;;;29.70;62.30;;;;;;4934763;29;20461;-71
2021/08/08 11:44:39;;;;;;;13.30;12.77;;;30.10;62.50;;;;;;4934181;29;20461;-71
2021/08/08 11:47:06;;;;;;;12.53;12.10;;;30.00;62.40;;;;;;4934223;29;20461;-70
2021/08/08 11:49:44;;;;;;;10.97;10.47;;;29.50;62.10;;;;;;4934267;29;20477;-70
2021/08/08 11:52:14;;;;;;;12.43;11.90;;;29.80;62.10;;;;;;4915468;29;20463;-69
2021/08/08 11:54:42;;;;;;;11.57;11.10;;;30.20;60.60;;;;;;4915307;29;20457;-69
2021/08/08 11:57:10;;;;;;;11.90;11.50;;;29.60;62.80;;;;;;4915325;29;20481;-69
2021/08/08 11:59:38;;;;;;;12.13;11.63;;;28.70;63.50;;;;;;4915068;29;20459;-70
2021/08/08 12:02:06;;;;;;;12.53;12.13;;;28.40;63.00;;;;;;4915193;29;20821;-71
2021/08/08 12:04:34;;;;;;;11.03;10.63;;;28.20;63.00;;;;;;4914846;29;20458;-71
2021/08/08 12:07:03;;;;;;;12.17;11.77;;;28.40;63.30;;;;;;4914962;29;20454;-71
2021/08/08 12:09:30;;;;;;;12.40;11.70;;;28.50;62.20;;;;;;4914810;29;20460;-71
2021/08/08 12:11:59;;;;;;;11.43;10.93;;;28.50;64.10;;;;;;4914840;29;20461;-71
2021/08/08 12:14:31;;;;;;;12.17;11.67;;;28.20;65.10;;;;;;4915065;29;20454;-71
2021/08/08 12:17:03;;;;;;;12.27;11.70;;;27.90;66.50;;;;;;4914951;29;20494;-70
2021/08/08 12:19:31;;;;;;;12.20;11.60;;;26.30;71.70;;;;;;4914920;29;20928;-72
2021/08/08 12:22:03;;;;;;;11.10;10.73;;;25.30;78.10;;;;;;4914771;29;20458;-71
2021/08/08 12:24:36;;;;;;;11.00;10.57;;;25.00;80.90;;;;;;4914847;29;20929;-71
2021/08/08 12:27:05;;;;;;;11.77;11.27;;;26.00;78.40;;;;;;4914682;29;20981;-72
2021/08/08 12:29:34;;;;;;;10.93;10.63;;;27.30;68.80;;;;;;4914881;29;20979;-72
2021/08/08 12:32:09;;;;;;;11.00;10.60;;;28.00;63.70;;;;;;4914433;29;20458;-71